sensor_id;sensor_type;location;lat;lon;timestamp;P1;durP1;ratioP1;P2;durP2;ratioP2
19679;SDS011;9989;48.962;9.182;2022-12-07T00:01:15;15.97;;;8.73;;
19679;SDS011;9989;48.962;9.182;2022-12-07T00:03:45;14.57;;;8.80;;
19679;SDS011;9989;48.962;9.182;2022-12-07T00:06:13;15.40;;;8.43;;
19679;SDS011;9989;48.962;9.182;2022-12-07T00:08:39;14.53;;;8.40;;
19679;SDS011;9989;48.962;9.182;2022-12-07T00:11:06;15.00;;;7.93;;
19679;SDS011;9989;48.962;9.182;2022-12-07T00:13:34;15.30;;;8.70;;
19679;SDS011;9989;48.962;9.182;2022-12-07T00:16:10;14.20;;;8.03;;
19679;SDS011;9989;48.962;9.182;2022-12-07T00:18:38;16.13;;;8.30;;
19679;SDS011;9989;48.962;9.182;2022-12-07T00:21:26;16.03;;;8.97;;
19679;SDS011;9989;48.962;9.182;2022-12-07T00:23:52;13.77;;;7.93;;
19679;SDS011;9989;48.962;9.182;2022-12-07T00:26:20;15.13;;;8.63;;
19679;SDS011;9989;48.962;9.182;2022-12-07T00:28:54;15.00;;;9.20;;
19679;SDS011;9989;48.962;9.182;2022-12-07T00:31:22;16.13;;;8.43;;
19679;SDS011;9989;48.962;9.182;2022-12-07T00:33:50;14.87;;;8.63;;
19679;SDS011;9989;48.962;9.182;2022-12-07T00:36:16;16.90;;;8.63;;
19679;SDS011;9989;48.962;9.182;2022-12-07T00:38:44;16.33;;;9.00;;
19679;SDS011;9989;48.962;9.182;2022-12-07T00:41:10;15.97;;;8.47;;
19679;SDS011;9989;48.962;9.182;2022-12-07T00:43:38;14.40;;;8.30;;
19679;SDS011;9989;48.962;9.182;2022-12-07T00:46:05;15.20;;;8.03;;
19679;SDS011;9989;48.962;9.182;2022-12-07T00:48:31;15.97;;;8.93;;
19679;SDS011;9989;48.962;9.182;2022-12-07T00:50:56;14.20;;;8.27;;
19679;SDS011;9989;48.962;9.182;2022-12-07T00:53:26;14.40;;;8.33;;
19679;SDS011;9989;48.962;9.182;2022-12-07T00:55:52;14.67;;;8.47;;
19679;SDS011;9989;48.962;9.182;2022-12-07T00:58:17;14.37;;;7.87;;
19679;SDS011;9989;48.962;9.182;2022-12-07T01:00:43;15.57;;;8.50;;
19679;SDS011;9989;48.962;9.182;2022-12-07T01:03:11;15.73;;;8.73;;
19679;SDS011;9989;48.962;9.182;2022-12-07T01:05:37;15.93;;;8.60;;
19679;SDS011;9989;48.962;9.182;2022-12-07T01:08:03;17.17;;;9.10;;
19679;SDS011;9989;48.962;9.182;2022-12-07T01:10:29;15.23;;;8.60;;
19679;SDS011;9989;48.962;9.182;2022-12-07T01:12:56;13.90;;;7.83;;
19679;SDS011;9989;48.962;9.182;2022-12-07T01:15:22;16.43;;;8.47;;
19679;SDS011;9989;48.962;9.182;2022-12-07T01:17:48;13.20;;;7.63;;
19679;SDS011;9989;48.962;9.182;2022-12-07T01:20:15;16.33;;;8.27;;
19679;SDS011;9989;48.962;9.182;2022-12-07T01:22:41;15.97;;;8.57;;
19679;SDS011;9989;48.962;9.182;2022-12-07T01:25:08;16.67;;;8.40;;
19679;SDS011;9989;48.962;9.182;2022-12-07T01:27:35;16.23;;;8.73;;
19679;SDS011;9989;48.962;9.182;2022-12-07T01:30:02;14.60;;;7.80;;
19679;SDS011;9989;48.962;9.182;2022-12-07T01:32:29;17.00;;;8.60;;
19679;SDS011;9989;48.962;9.182;2022-12-07T01:34:55;15.03;;;8.67;;
19679;SDS011;9989;48.962;9.182;2022-12-07T01:37:20;14.10;;;7.47;;
19679;SDS011;9989;48.962;9.182;2022-12-07T01:39:50;18.13;;;9.00;;
19679;SDS011;9989;48.962;9.182;2022-12-07T01:42:17;16.80;;;8.80;;
19679;SDS011;9989;48.962;9.182;2022-12-07T01:47:43;15.13;;;7.67;;
19679;SDS011;9989;48.962;9.182;2022-12-07T01:50:12;16.40;;;8.73;;
19679;SDS011;9989;48.962;9.182;2022-12-07T01:52:38;17.00;;;8.90;;
19679;SDS011;9989;48.962;9.182;2022-12-07T01:55:07;16.77;;;8.23;;
19679;SDS011;9989;48.962;9.182;2022-12-07T01:57:36;15.37;;;8.23;;
19679;SDS011;9989;48.962;9.182;2022-12-07T02:00:06;15.13;;;8.07;;
19679;SDS011;9989;48.962;9.182;2022-12-07T02:02:36;14.40;;;8.40;;
19679;SDS011;9989;48.962;9.182;2022-12-07T02:05:06;15.43;;;8.00;;
19679;SDS011;9989;48.962;9.182;2022-12-07T02:07:32;15.33;;;8.77;;
19679;SDS011;9989;48.962;9.182;2022-12-07T02:12:38;16.17;;;8.60;;
19679;SDS011;9989;48.962;9.182;2022-12-07T02:15:05;17.93;;;9.10;;
19679;SDS011;9989;48.962;9.182;2022-12-07T02:25:44;16.73;;;9.40;;
19679;SDS011;9989;48.962;9.182;2022-12-07T02:28:34;19.33;;;9.50;;
19679;SDS011;9989;48.962;9.182;2022-12-07T02:31:06;16.87;;;9.00;;
19679;SDS011;9989;48.962;9.182;2022-12-07T02:33:39;17.73;;;9.23;;
19679;SDS011;9989;48.962;9.182;2022-12-07T02:36:21;15.77;;;9.30;;
19679;SDS011;9989;48.962;9.182;2022-12-07T02:38:55;16.13;;;9.40;;
19679;SDS011;9989;48.962;9.182;2022-12-07T02:41:27;16.57;;;9.30;;
19679;SDS011;9989;48.962;9.182;2022-12-07T02:43:58;16.53;;;8.77;;
19679;SDS011;9989;48.962;9.182;2022-12-07T02:46:57;15.13;;;8.70;;
19679;SDS011;9989;48.962;9.182;2022-12-07T02:49:30;16.80;;;9.20;;
19679;SDS011;9989;48.962;9.182;2022-12-07T02:51:56;17.10;;;9.30;;
19679;SDS011;9989;48.962;9.182;2022-12-07T02:54:22;17.37;;;9.10;;
19679;SDS011;9989;48.962;9.182;2022-12-07T03:02:17;16.07;;;9.03;;
19679;SDS011;9989;48.962;9.182;2022-12-07T03:10:39;17.70;;;10.63;;
19679;SDS011;9989;48.962;9.182;2022-12-07T03:18:22;15.43;;;8.33;;
19679;SDS011;9989;48.962;9.182;2022-12-07T03:20:51;17.60;;;9.50;;
19679;SDS011;9989;48.962;9.182;2022-12-07T03:23:20;18.70;;;9.73;;
19679;SDS011;9989;48.962;9.182;2022-12-07T03:25:49;17.53;;;10.00;;
19679;SDS011;9989;48.962;9.182;2022-12-07T03:28:19;18.40;;;9.40;;
19679;SDS011;9989;48.962;9.182;2022-12-07T03:30:54;18.67;;;9.33;;
19679;SDS011;9989;48.962;9.182;2022-12-07T03:33:32;17.33;;;9.83;;
19679;SDS011;9989;48.962;9.182;2022-12-07T03:36:35;16.97;;;8.93;;
19679;SDS011;9989;48.962;9.182;2022-12-07T03:41:45;15.53;;;8.27;;
19679;SDS011;9989;48.962;9.182;2022-12-07T03:44:10;18.27;;;10.73;;
19679;SDS011;9989;48.962;9.182;2022-12-07T03:49:08;19.43;;;10.03;;
19679;SDS011;9989;48.962;9.182;2022-12-07T03:56:57;18.47;;;10.53;;
19679;SDS011;9989;48.962;9.182;2022-12-07T03:59:24;16.73;;;9.50;;
19679;SDS011;9989;48.962;9.182;2022-12-07T04:01:52;20.97;;;10.63;;
19679;SDS011;9989;48.962;9.182;2022-12-07T04:04:21;19.83;;;10.10;;
19679;SDS011;9989;48.962;9.182;2022-12-07T04:06:49;19.77;;;9.40;;
19679;SDS011;9989;48.962;9.182;2022-12-07T04:09:15;18.03;;;9.77;;
19679;SDS011;9989;48.962;9.182;2022-12-07T04:11:41;16.27;;;8.67;;
19679;SDS011;9989;48.962;9.182;2022-12-07T04:14:07;18.03;;;9.30;;
19679;SDS011;9989;48.962;9.182;2022-12-07T04:16:46;17.83;;;9.13;;
19679;SDS011;9989;48.962;9.182;2022-12-07T04:19:17;18.03;;;9.50;;
19679;SDS011;9989;48.962;9.182;2022-12-07T04:21:44;17.80;;;9.40;;
19679;SDS011;9989;48.962;9.182;2022-12-07T04:24:11;17.30;;;9.83;;
19679;SDS011;9989;48.962;9.182;2022-12-07T04:26:37;17.33;;;9.47;;
19679;SDS011;9989;48.962;9.182;2022-12-07T04:29:03;17.43;;;9.23;;
19679;SDS011;9989;48.962;9.182;2022-12-07T04:31:28;20.17;;;10.73;;
19679;SDS011;9989;48.962;9.182;2022-12-07T04:33:54;17.20;;;9.23;;
19679;SDS011;9989;48.962;9.182;2022-12-07T04:36:19;17.37;;;8.87;;
19679;SDS011;9989;48.962;9.182;2022-12-07T04:38:45;18.33;;;9.10;;
19679;SDS011;9989;48.962;9.182;2022-12-07T04:41:11;16.33;;;8.80;;
19679;SDS011;9989;48.962;9.182;2022-12-07T04:43:38;17.43;;;9.20;;
19679;SDS011;9989;48.962;9.182;2022-12-07T04:46:04;18.53;;;10.17;;
19679;SDS011;9989;48.962;9.182;2022-12-07T04:48:30;21.27;;;10.87;;
19679;SDS011;9989;48.962;9.182;2022-12-07T04:50:56;17.57;;;9.87;;
19679;SDS011;9989;48.962;9.182;2022-12-07T04:53:21;18.77;;;9.30;;
19679;SDS011;9989;48.962;9.182;2022-12-07T04:55:47;16.53;;;8.93;;
19679;SDS011;9989;48.962;9.182;2022-12-07T04:58:13;17.73;;;8.77;;
19679;SDS011;9989;48.962;9.182;2022-12-07T05:00:39;16.70;;;9.37;;
19679;SDS011;9989;48.962;9.182;2022-12-07T05:03:05;16.37;;;8.93;;
19679;SDS011;9989;48.962;9.182;2022-12-07T05:05:31;22.80;;;10.67;;
19679;SDS011;9989;48.962;9.182;2022-12-07T05:07:56;22.43;;;11.47;;
19679;SDS011;9989;48.962;9.182;2022-12-07T05:10:22;18.87;;;9.60;;
19679;SDS011;9989;48.962;9.182;2022-12-07T05:12:48;21.70;;;11.07;;
19679;SDS011;9989;48.962;9.182;2022-12-07T05:15:14;20.37;;;10.17;;
19679;SDS011;9989;48.962;9.182;2022-12-07T05:17:40;23.87;;;10.67;;
19679;SDS011;9989;48.962;9.182;2022-12-07T05:20:06;19.97;;;10.30;;
19679;SDS011;9989;48.962;9.182;2022-12-07T05:22:33;21.57;;;11.00;;
19679;SDS011;9989;48.962;9.182;2022-12-07T05:24:58;20.87;;;10.83;;
19679;SDS011;9989;48.962;9.182;2022-12-07T05:27:24;18.97;;;10.23;;
19679;SDS011;9989;48.962;9.182;2022-12-07T05:29:50;18.60;;;10.07;;
19679;SDS011;9989;48.962;9.182;2022-12-07T05:32:15;16.83;;;9.67;;
19679;SDS011;9989;48.962;9.182;2022-12-07T05:34:41;20.80;;;11.03;;
19679;SDS011;9989;48.962;9.182;2022-12-07T05:37:07;18.93;;;9.80;;
19679;SDS011;9989;48.962;9.182;2022-12-07T05:39:32;17.63;;;9.80;;
19679;SDS011;9989;48.962;9.182;2022-12-07T05:41:58;18.47;;;9.90;;
19679;SDS011;9989;48.962;9.182;2022-12-07T05:44:39;17.53;;;10.07;;
19679;SDS011;9989;48.962;9.182;2022-12-07T05:47:04;16.10;;;9.50;;
19679;SDS011;9989;48.962;9.182;2022-12-07T05:49:30;17.77;;;8.70;;
19679;SDS011;9989;48.962;9.182;2022-12-07T05:51:56;15.60;;;8.33;;
19679;SDS011;9989;48.962;9.182;2022-12-07T05:54:22;20.27;;;9.10;;
19679;SDS011;9989;48.962;9.182;2022-12-07T05:56:47;16.57;;;9.13;;
19679;SDS011;9989;48.962;9.182;2022-12-07T05:59:13;21.07;;;9.83;;
19679;SDS011;9989;48.962;9.182;2022-12-07T06:01:48;17.57;;;9.27;;
19679;SDS011;9989;48.962;9.182;2022-12-07T06:04:18;19.13;;;9.90;;
19679;SDS011;9989;48.962;9.182;2022-12-07T06:06:44;16.70;;;10.33;;
19679;SDS011;9989;48.962;9.182;2022-12-07T06:09:10;19.47;;;10.60;;
19679;SDS011;9989;48.962;9.182;2022-12-07T06:11:37;21.60;;;12.20;;
19679;SDS011;9989;48.962;9.182;2022-12-07T06:14:22;19.30;;;10.53;;
19679;SDS011;9989;48.962;9.182;2022-12-07T06:16:47;19.10;;;9.93;;
19679;SDS011;9989;48.962;9.182;2022-12-07T06:19:13;20.77;;;9.83;;
19679;SDS011;9989;48.962;9.182;2022-12-07T06:21:39;19.90;;;10.20;;
19679;SDS011;9989;48.962;9.182;2022-12-07T06:24:05;17.27;;;9.70;;
19679;SDS011;9989;48.962;9.182;2022-12-07T06:26:31;17.70;;;9.50;;
19679;SDS011;9989;48.962;9.182;2022-12-07T06:28:56;19.33;;;10.50;;
19679;SDS011;9989;48.962;9.182;2022-12-07T06:31:22;19.33;;;10.03;;
19679;SDS011;9989;48.962;9.182;2022-12-07T06:33:48;17.43;;;8.90;;
19679;SDS011;9989;48.962;9.182;2022-12-07T06:36:13;23.70;;;10.07;;
19679;SDS011;9989;48.962;9.182;2022-12-07T06:38:39;20.93;;;9.87;;
19679;SDS011;9989;48.962;9.182;2022-12-07T06:41:05;16.70;;;9.17;;
19679;SDS011;9989;48.962;9.182;2022-12-07T06:43:31;17.57;;;9.83;;
19679;SDS011;9989;48.962;9.182;2022-12-07T06:45:57;18.07;;;9.80;;
19679;SDS011;9989;48.962;9.182;2022-12-07T06:48:23;18.60;;;9.53;;
19679;SDS011;9989;48.962;9.182;2022-12-07T06:50:48;18.20;;;10.00;;
19679;SDS011;9989;48.962;9.182;2022-12-07T06:53:14;19.50;;;11.10;;
19679;SDS011;9989;48.962;9.182;2022-12-07T06:55:41;20.53;;;10.03;;
19679;SDS011;9989;48.962;9.182;2022-12-07T06:58:07;17.67;;;10.13;;
19679;SDS011;9989;48.962;9.182;2022-12-07T07:00:32;20.07;;;10.43;;
19679;SDS011;9989;48.962;9.182;2022-12-07T07:02:59;20.03;;;10.93;;
19679;SDS011;9989;48.962;9.182;2022-12-07T07:05:25;17.77;;;10.00;;
19679;SDS011;9989;48.962;9.182;2022-12-07T07:07:51;17.33;;;9.73;;
19679;SDS011;9989;48.962;9.182;2022-12-07T07:10:17;18.43;;;10.10;;
19679;SDS011;9989;48.962;9.182;2022-12-07T07:12:42;20.30;;;11.27;;
19679;SDS011;9989;48.962;9.182;2022-12-07T07:15:08;16.40;;;8.63;;
19679;SDS011;9989;48.962;9.182;2022-12-07T07:17:34;18.07;;;10.07;;
19679;SDS011;9989;48.962;9.182;2022-12-07T07:20:00;19.13;;;10.03;;
19679;SDS011;9989;48.962;9.182;2022-12-07T07:22:25;18.20;;;9.80;;
19679;SDS011;9989;48.962;9.182;2022-12-07T07:24:51;20.03;;;10.47;;
19679;SDS011;9989;48.962;9.182;2022-12-07T07:27:17;16.97;;;9.17;;
19679;SDS011;9989;48.962;9.182;2022-12-07T07:29:42;20.17;;;9.53;;
19679;SDS011;9989;48.962;9.182;2022-12-07T07:32:08;17.37;;;8.97;;
19679;SDS011;9989;48.962;9.182;2022-12-07T07:34:33;19.13;;;10.50;;
19679;SDS011;9989;48.962;9.182;2022-12-07T07:36:59;19.13;;;10.57;;
19679;SDS011;9989;48.962;9.182;2022-12-07T07:39:25;18.33;;;9.70;;
19679;SDS011;9989;48.962;9.182;2022-12-07T07:41:50;16.87;;;9.43;;
19679;SDS011;9989;48.962;9.182;2022-12-07T07:44:16;18.20;;;9.63;;
19679;SDS011;9989;48.962;9.182;2022-12-07T07:46:41;17.90;;;9.53;;
19679;SDS011;9989;48.962;9.182;2022-12-07T07:49:08;18.07;;;9.93;;
19679;SDS011;9989;48.962;9.182;2022-12-07T07:51:35;20.27;;;10.60;;
19679;SDS011;9989;48.962;9.182;2022-12-07T07:54:01;18.67;;;9.37;;
19679;SDS011;9989;48.962;9.182;2022-12-07T07:56:28;17.57;;;8.87;;
19679;SDS011;9989;48.962;9.182;2022-12-07T07:58:53;18.97;;;9.47;;
19679;SDS011;9989;48.962;9.182;2022-12-07T08:01:19;17.20;;;9.63;;
19679;SDS011;9989;48.962;9.182;2022-12-07T08:03:46;20.53;;;9.97;;
19679;SDS011;9989;48.962;9.182;2022-12-07T08:06:14;21.07;;;10.27;;
19679;SDS011;9989;48.962;9.182;2022-12-07T08:08:42;19.40;;;9.47;;
19679;SDS011;9989;48.962;9.182;2022-12-07T08:11:08;19.67;;;9.53;;
19679;SDS011;9989;48.962;9.182;2022-12-07T08:13:34;22.43;;;11.13;;
19679;SDS011;9989;48.962;9.182;2022-12-07T08:16:04;19.90;;;10.40;;
19679;SDS011;9989;48.962;9.182;2022-12-07T08:18:37;22.17;;;12.20;;
19679;SDS011;9989;48.962;9.182;2022-12-07T08:21:05;22.27;;;12.67;;
19679;SDS011;9989;48.962;9.182;2022-12-07T08:23:32;21.33;;;11.83;;
19679;SDS011;9989;48.962;9.182;2022-12-07T08:26:12;20.83;;;10.63;;
19679;SDS011;9989;48.962;9.182;2022-12-07T08:28:39;18.60;;;9.23;;
19679;SDS011;9989;48.962;9.182;2022-12-07T08:31:10;18.70;;;9.63;;
19679;SDS011;9989;48.962;9.182;2022-12-07T08:33:38;20.37;;;10.17;;
19679;SDS011;9989;48.962;9.182;2022-12-07T08:36:04;17.47;;;9.57;;
19679;SDS011;9989;48.962;9.182;2022-12-07T08:38:35;18.37;;;10.20;;
19679;SDS011;9989;48.962;9.182;2022-12-07T08:41:02;18.27;;;8.77;;
19679;SDS011;9989;48.962;9.182;2022-12-07T08:43:28;17.93;;;10.23;;
19679;SDS011;9989;48.962;9.182;2022-12-07T08:46:10;17.50;;;8.03;;
19679;SDS011;9989;48.962;9.182;2022-12-07T08:51:17;15.00;;;8.27;;
19679;SDS011;9989;48.962;9.182;2022-12-07T08:53:42;16.93;;;8.40;;
19679;SDS011;9989;48.962;9.182;2022-12-07T08:56:09;15.93;;;7.80;;
19679;SDS011;9989;48.962;9.182;2022-12-07T08:58:35;15.47;;;7.13;;
19679;SDS011;9989;48.962;9.182;2022-12-07T09:01:03;13.93;;;7.07;;
19679;SDS011;9989;48.962;9.182;2022-12-07T09:03:29;13.60;;;7.53;;
19679;SDS011;9989;48.962;9.182;2022-12-07T09:05:55;16.87;;;7.97;;
19679;SDS011;9989;48.962;9.182;2022-12-07T09:08:22;14.93;;;7.90;;
19679;SDS011;9989;48.962;9.182;2022-12-07T09:10:53;14.00;;;6.73;;
19679;SDS011;9989;48.962;9.182;2022-12-07T09:13:18;15.07;;;7.67;;
19679;SDS011;9989;48.962;9.182;2022-12-07T09:15:44;13.03;;;5.93;;
19679;SDS011;9989;48.962;9.182;2022-12-07T09:18:10;16.63;;;6.80;;
19679;SDS011;9989;48.962;9.182;2022-12-07T09:20:35;14.93;;;7.00;;
19679;SDS011;9989;48.962;9.182;2022-12-07T09:23:01;13.77;;;7.20;;
19679;SDS011;9989;48.962;9.182;2022-12-07T09:25:26;15.23;;;6.90;;
19679;SDS011;9989;48.962;9.182;2022-12-07T09:27:56;13.23;;;6.77;;
19679;SDS011;9989;48.962;9.182;2022-12-07T09:30:22;14.03;;;6.70;;
19679;SDS011;9989;48.962;9.182;2022-12-07T09:32:48;15.77;;;6.73;;
19679;SDS011;9989;48.962;9.182;2022-12-07T09:35:13;18.40;;;7.73;;
19679;SDS011;9989;48.962;9.182;2022-12-07T09:37:39;16.43;;;7.73;;
19679;SDS011;9989;48.962;9.182;2022-12-07T09:40:05;15.83;;;6.97;;
19679;SDS011;9989;48.962;9.182;2022-12-07T09:42:38;15.47;;;7.43;;
19679;SDS011;9989;48.962;9.182;2022-12-07T09:45:12;15.17;;;6.90;;
19679;SDS011;9989;48.962;9.182;2022-12-07T09:47:47;16.50;;;7.23;;
19679;SDS011;9989;48.962;9.182;2022-12-07T09:50:13;13.93;;;6.93;;
19679;SDS011;9989;48.962;9.182;2022-12-07T09:52:42;13.17;;;6.00;;
19679;SDS011;9989;48.962;9.182;2022-12-07T09:55:14;12.57;;;6.20;;
19679;SDS011;9989;48.962;9.182;2022-12-07T09:57:44;13.67;;;5.40;;
19679;SDS011;9989;48.962;9.182;2022-12-07T10:00:12;11.07;;;5.27;;
19679;SDS011;9989;48.962;9.182;2022-12-07T10:02:53;11.63;;;5.43;;
19679;SDS011;9989;48.962;9.182;2022-12-07T10:05:23;10.90;;;4.63;;
19679;SDS011;9989;48.962;9.182;2022-12-07T10:08:00;10.73;;;5.20;;
19679;SDS011;9989;48.962;9.182;2022-12-07T10:10:29;10.93;;;4.47;;
19679;SDS011;9989;48.962;9.182;2022-12-07T10:13:04;10.97;;;4.73;;
19679;SDS011;9989;48.962;9.182;2022-12-07T10:20:46;9.03;;;4.17;;
19679;SDS011;9989;48.962;9.182;2022-12-07T10:23:16;10.70;;;4.20;;
19679;SDS011;9989;48.962;9.182;2022-12-07T10:25:43;11.23;;;4.73;;
19679;SDS011;9989;48.962;9.182;2022-12-07T10:28:16;10.20;;;4.50;;
19679;SDS011;9989;48.962;9.182;2022-12-07T10:30:56;10.97;;;4.93;;
19679;SDS011;9989;48.962;9.182;2022-12-07T10:33:27;11.13;;;4.87;;
19679;SDS011;9989;48.962;9.182;2022-12-07T10:36:01;12.43;;;5.60;;
19679;SDS011;9989;48.962;9.182;2022-12-07T10:38:50;10.50;;;4.73;;
19679;SDS011;9989;48.962;9.182;2022-12-07T10:41:18;12.77;;;5.57;;
19679;SDS011;9989;48.962;9.182;2022-12-07T10:43:48;11.77;;;5.83;;
19679;SDS011;9989;48.962;9.182;2022-12-07T11:07:46;13.07;;;5.63;;
19679;SDS011;9989;48.962;9.182;2022-12-07T11:10:23;12.60;;;5.70;;
19679;SDS011;9989;48.962;9.182;2022-12-07T11:23:56;13.43;;;6.20;;
19679;SDS011;9989;48.962;9.182;2022-12-07T11:29:39;12.50;;;6.57;;
19679;SDS011;9989;48.962;9.182;2022-12-07T11:35:11;13.20;;;6.90;;
19679;SDS011;9989;48.962;9.182;2022-12-07T11:37:42;13.33;;;6.37;;
19679;SDS011;9989;48.962;9.182;2022-12-07T11:43:04;13.07;;;6.77;;
19679;SDS011;9989;48.962;9.182;2022-12-07T11:45:54;13.33;;;6.97;;
19679;SDS011;9989;48.962;9.182;2022-12-07T11:48:38;12.33;;;6.60;;
19679;SDS011;9989;48.962;9.182;2022-12-07T11:51:12;12.93;;;6.23;;
19679;SDS011;9989;48.962;9.182;2022-12-07T11:53:39;11.83;;;6.23;;
19679;SDS011;9989;48.962;9.182;2022-12-07T11:56:19;17.47;;;7.37;;
19679;SDS011;9989;48.962;9.182;2022-12-07T12:06:35;12.47;;;6.30;;
19679;SDS011;9989;48.962;9.182;2022-12-07T12:14:23;14.10;;;7.33;;
19679;SDS011;9989;48.962;9.182;2022-12-07T12:23:13;13.77;;;7.03;;
19679;SDS011;9989;48.962;9.182;2022-12-07T12:25:49;14.03;;;7.27;;
19679;SDS011;9989;48.962;9.182;2022-12-07T12:31:14;14.80;;;7.63;;
19679;SDS011;9989;48.962;9.182;2022-12-07T12:33:57;13.23;;;6.87;;
19679;SDS011;9989;48.962;9.182;2022-12-07T12:46:56;16.37;;;7.23;;
19679;SDS011;9989;48.962;9.182;2022-12-07T12:49:34;15.20;;;8.37;;
19679;SDS011;9989;48.962;9.182;2022-12-07T12:54:39;13.90;;;7.13;;
19679;SDS011;9989;48.962;9.182;2022-12-07T12:57:24;14.17;;;7.70;;
19679;SDS011;9989;48.962;9.182;2022-12-07T13:10:08;14.03;;;7.60;;
19679;SDS011;9989;48.962;9.182;2022-12-07T13:13:03;17.13;;;8.27;;
19679;SDS011;9989;48.962;9.182;2022-12-07T13:23:37;16.87;;;9.73;;
19679;SDS011;9989;48.962;9.182;2022-12-07T13:31:15;19.40;;;9.93;;
19679;SDS011;9989;48.962;9.182;2022-12-07T13:33:44;19.13;;;9.77;;
19679;SDS011;9989;48.962;9.182;2022-12-07T13:36:21;17.53;;;9.03;;
19679;SDS011;9989;48.962;9.182;2022-12-07T13:39:10;16.00;;;9.33;;
19679;SDS011;9989;48.962;9.182;2022-12-07T13:41:43;19.63;;;9.40;;
19679;SDS011;9989;48.962;9.182;2022-12-07T13:44:09;18.55;;;10.52;;
19679;SDS011;9989;48.962;9.182;2022-12-07T13:49:25;16.70;;;8.80;;
19679;SDS011;9989;48.962;9.182;2022-12-07T13:51:52;18.03;;;7.67;;
19679;SDS011;9989;48.962;9.182;2022-12-07T13:54:19;15.87;;;8.50;;
19679;SDS011;9989;48.962;9.182;2022-12-07T13:56:50;17.80;;;8.50;;
19679;SDS011;9989;48.962;9.182;2022-12-07T13:59:18;15.83;;;8.17;;
19679;SDS011;9989;48.962;9.182;2022-12-07T14:01:46;18.37;;;8.77;;
19679;SDS011;9989;48.962;9.182;2022-12-07T14:04:27;18.07;;;9.03;;
19679;SDS011;9989;48.962;9.182;2022-12-07T14:06:54;16.85;;;8.90;;
19679;SDS011;9989;48.962;9.182;2022-12-07T14:11:47;26.73;;;11.07;;
19679;SDS011;9989;48.962;9.182;2022-12-07T14:14:20;21.50;;;10.77;;
19679;SDS011;9989;48.962;9.182;2022-12-07T14:17:11;18.53;;;9.97;;
19679;SDS011;9989;48.962;9.182;2022-12-07T14:19:57;21.63;;;10.77;;
19679;SDS011;9989;48.962;9.182;2022-12-07T14:22:26;18.87;;;9.43;;
19679;SDS011;9989;48.962;9.182;2022-12-07T14:24:58;15.70;;;8.13;;
19679;SDS011;9989;48.962;9.182;2022-12-07T14:27:48;18.13;;;9.20;;
19679;SDS011;9989;48.962;9.182;2022-12-07T14:30:20;18.00;;;10.13;;
19679;SDS011;9989;48.962;9.182;2022-12-07T14:32:46;17.37;;;8.53;;
19679;SDS011;9989;48.962;9.182;2022-12-07T14:35:17;17.93;;;8.87;;
19679;SDS011;9989;48.962;9.182;2022-12-07T14:37:44;18.67;;;9.40;;
19679;SDS011;9989;48.962;9.182;2022-12-07T14:40:17;18.37;;;9.83;;
19679;SDS011;9989;48.962;9.182;2022-12-07T14:42:44;18.53;;;9.03;;
19679;SDS011;9989;48.962;9.182;2022-12-07T14:45:19;18.07;;;9.67;;
19679;SDS011;9989;48.962;9.182;2022-12-07T14:47:46;18.77;;;9.03;;
19679;SDS011;9989;48.962;9.182;2022-12-07T14:50:12;18.57;;;10.03;;
19679;SDS011;9989;48.962;9.182;2022-12-07T14:52:39;19.83;;;9.83;;
19679;SDS011;9989;48.962;9.182;2022-12-07T14:55:13;21.63;;;10.73;;
19679;SDS011;9989;48.962;9.182;2022-12-07T14:57:44;19.23;;;9.70;;
19679;SDS011;9989;48.962;9.182;2022-12-07T15:00:12;19.60;;;9.70;;
19679;SDS011;9989;48.962;9.182;2022-12-07T15:02:39;21.00;;;10.00;;
19679;SDS011;9989;48.962;9.182;2022-12-07T15:05:04;22.50;;;9.77;;
19679;SDS011;9989;48.962;9.182;2022-12-07T15:07:30;22.33;;;10.50;;
19679;SDS011;9989;48.962;9.182;2022-12-07T15:09:56;21.47;;;11.17;;
19679;SDS011;9989;48.962;9.182;2022-12-07T15:12:21;23.87;;;11.13;;
19679;SDS011;9989;48.962;9.182;2022-12-07T15:14:48;23.50;;;10.97;;
19679;SDS011;9989;48.962;9.182;2022-12-07T15:17:14;24.90;;;10.53;;
19679;SDS011;9989;48.962;9.182;2022-12-07T15:19:39;21.63;;;10.57;;
19679;SDS011;9989;48.962;9.182;2022-12-07T15:22:05;23.30;;;11.23;;
19679;SDS011;9989;48.962;9.182;2022-12-07T15:24:30;24.43;;;12.23;;
19679;SDS011;9989;48.962;9.182;2022-12-07T15:26:56;23.80;;;11.73;;
19679;SDS011;9989;48.962;9.182;2022-12-07T15:29:22;22.93;;;12.00;;
19679;SDS011;9989;48.962;9.182;2022-12-07T15:31:48;22.83;;;11.60;;
19679;SDS011;9989;48.962;9.182;2022-12-07T15:34:14;23.87;;;11.77;;
19679;SDS011;9989;48.962;9.182;2022-12-07T15:36:40;23.50;;;12.00;;
19679;SDS011;9989;48.962;9.182;2022-12-07T15:39:05;25.27;;;12.67;;
19679;SDS011;9989;48.962;9.182;2022-12-07T15:41:31;25.50;;;13.10;;
19679;SDS011;9989;48.962;9.182;2022-12-07T15:43:57;27.23;;;14.10;;
19679;SDS011;9989;48.962;9.182;2022-12-07T15:46:41;27.80;;;15.00;;
19679;SDS011;9989;48.962;9.182;2022-12-07T15:49:12;27.20;;;13.30;;
19679;SDS011;9989;48.962;9.182;2022-12-07T15:51:42;30.70;;;13.77;;
19679;SDS011;9989;48.962;9.182;2022-12-07T15:54:11;27.67;;;13.00;;
19679;SDS011;9989;48.962;9.182;2022-12-07T15:56:40;28.87;;;14.90;;
19679;SDS011;9989;48.962;9.182;2022-12-07T15:59:06;25.27;;;14.23;;
19679;SDS011;9989;48.962;9.182;2022-12-07T16:01:31;28.57;;;14.23;;
19679;SDS011;9989;48.962;9.182;2022-12-07T16:03:57;31.17;;;14.40;;
19679;SDS011;9989;48.962;9.182;2022-12-07T16:06:24;27.83;;;14.30;;
19679;SDS011;9989;48.962;9.182;2022-12-07T16:08:50;28.43;;;13.67;;
19679;SDS011;9989;48.962;9.182;2022-12-07T16:11:15;27.17;;;14.07;;
19679;SDS011;9989;48.962;9.182;2022-12-07T16:13:41;31.40;;;15.77;;
19679;SDS011;9989;48.962;9.182;2022-12-07T16:16:08;30.60;;;14.90;;
19679;SDS011;9989;48.962;9.182;2022-12-07T16:18:36;30.33;;;14.53;;
19679;SDS011;9989;48.962;9.182;2022-12-07T16:21:03;26.90;;;14.20;;
19679;SDS011;9989;48.962;9.182;2022-12-07T16:23:29;26.50;;;14.10;;
19679;SDS011;9989;48.962;9.182;2022-12-07T16:25:55;27.87;;;13.67;;
19679;SDS011;9989;48.962;9.182;2022-12-07T16:28:32;24.60;;;13.23;;
19679;SDS011;9989;48.962;9.182;2022-12-07T16:31:04;24.03;;;12.83;;
19679;SDS011;9989;48.962;9.182;2022-12-07T16:33:35;23.70;;;12.30;;
19679;SDS011;9989;48.962;9.182;2022-12-07T16:36:03;25.83;;;13.73;;
19679;SDS011;9989;48.962;9.182;2022-12-07T16:38:30;24.40;;;13.27;;
19679;SDS011;9989;48.962;9.182;2022-12-07T16:40:55;28.13;;;14.50;;
19679;SDS011;9989;48.962;9.182;2022-12-07T16:43:21;28.37;;;14.67;;
19679;SDS011;9989;48.962;9.182;2022-12-07T16:45:47;26.97;;;13.97;;
19679;SDS011;9989;48.962;9.182;2022-12-07T16:48:13;32.27;;;15.73;;
19679;SDS011;9989;48.962;9.182;2022-12-07T16:50:40;29.87;;;15.53;;
19679;SDS011;9989;48.962;9.182;2022-12-07T16:53:07;31.87;;;15.60;;
19679;SDS011;9989;48.962;9.182;2022-12-07T16:55:40;26.63;;;13.93;;
19679;SDS011;9989;48.962;9.182;2022-12-07T16:58:08;26.60;;;13.23;;
19679;SDS011;9989;48.962;9.182;2022-12-07T17:00:33;26.20;;;14.13;;
19679;SDS011;9989;48.962;9.182;2022-12-07T17:03:00;27.13;;;14.53;;
19679;SDS011;9989;48.962;9.182;2022-12-07T17:05:26;25.17;;;13.97;;
19679;SDS011;9989;48.962;9.182;2022-12-07T17:07:53;26.27;;;13.97;;
19679;SDS011;9989;48.962;9.182;2022-12-07T17:10:20;24.93;;;13.23;;
19679;SDS011;9989;48.962;9.182;2022-12-07T17:12:46;20.83;;;12.20;;
19679;SDS011;9989;48.962;9.182;2022-12-07T17:15:11;24.37;;;12.87;;
19679;SDS011;9989;48.962;9.182;2022-12-07T17:17:46;26.57;;;14.57;;
19679;SDS011;9989;48.962;9.182;2022-12-07T17:20:22;25.07;;;13.53;;
19679;SDS011;9989;48.962;9.182;2022-12-07T17:22:49;26.47;;;12.77;;
19679;SDS011;9989;48.962;9.182;2022-12-07T17:25:15;25.30;;;14.47;;
19679;SDS011;9989;48.962;9.182;2022-12-07T17:27:41;27.97;;;14.63;;